sensor_id;sensor_type;location;lat;lon;timestamp;temperature;humidity
27781;DHT22;15167;1.318;103.762;2023-05-24T00:00:50;29.00;99.90
27781;DHT22;15167;1.318;103.762;2023-05-24T00:03:17;29.00;99.90
27781;DHT22;15167;1.318;103.762;2023-05-24T00:05:44;29.00;99.90
27781;DHT22;15167;1.318;103.762;2023-05-24T00:08:11;29.00;99.90
27781;DHT22;15167;1.318;103.762;2023-05-24T00:10:40;29.00;99.90
27781;DHT22;15167;1.318;103.762;2023-05-24T00:13:07;29.10;99.90
27781;DHT22;15167;1.318;103.762;2023-05-24T00:15:33;29.20;99.90
27781;DHT22;15167;1.318;103.762;2023-05-24T00:17:59;29.20;99.90
27781;DHT22;15167;1.318;103.762;2023-05-24T00:20:25;29.30;99.90
27781;DHT22;15167;1.318;103.762;2023-05-24T00:22:51;29.30;99.90
27781;DHT22;15167;1.318;103.762;2023-05-24T00:25:17;29.30;99.90
27781;DHT22;15167;1.318;103.762;2023-05-24T00:27:43;29.30;99.90
27781;DHT22;15167;1.318;103.762;2023-05-24T00:30:10;29.40;99.90
27781;DHT22;15167;1.318;103.762;2023-05-24T00:32:36;29.40;99.90
27781;DHT22;15167;1.318;103.762;2023-05-24T00:35:02;29.40;99.90
27781;DHT22;15167;1.318;103.762;2023-05-24T00:37:28;29.50;99.90
27781;DHT22;15167;1.318;103.762;2023-05-24T00:39:54;29.60;99.90
27781;DHT22;15167;1.318;103.762;2023-05-24T00:42:20;29.80;99.90
27781;DHT22;15167;1.318;103.762;2023-05-24T00:44:47;29.90;99.90
27781;DHT22;15167;1.318;103.762;2023-05-24T00:47:13;30.00;99.90
27781;DHT22;15167;1.318;103.762;2023-05-24T00:49:40;30.10;99.90
27781;DHT22;15167;1.318;103.762;2023-05-24T00:52:06;30.00;99.90
27781;DHT22;15167;1.318;103.762;2023-05-24T00:54:33;30.00;99.90
27781;DHT22;15167;1.318;103.762;2023-05-24T00:56:59;30.00;99.90
27781;DHT22;15167;1.318;103.762;2023-05-24T00:59:26;30.00;99.90
27781;DHT22;15167;1.318;103.762;2023-05-24T01:01:52;30.10;99.90
27781;DHT22;15167;1.318;103.762;2023-05-24T01:04:19;30.20;99.90
27781;DHT22;15167;1.318;103.762;2023-05-24T01:07:10;30.20;99.90
27781;DHT22;15167;1.318;103.762;2023-05-24T01:22:12;30.20;99.90
27781;DHT22;15167;1.318;103.762;2023-05-24T01:24:59;30.40;88.40
27781;DHT22;15167;1.318;103.762;2023-05-24T01:27:28;30.50;50.70
27781;DHT22;15167;1.318;103.762;2023-05-24T01:29:55;30.70;10.60
27781;DHT22;15167;1.318;103.762;2023-05-24T01:32:21;30.80;1.00
27781;DHT22;15167;1.318;103.762;2023-05-24T01:34:47;31.00;1.00
27781;DHT22;15167;1.318;103.762;2023-05-24T01:37:13;31.10;1.00
27781;DHT22;15167;1.318;103.762;2023-05-24T01:39:40;31.10;1.00
27781;DHT22;15167;1.318;103.762;2023-05-24T01:42:07;31.20;1.00
27781;DHT22;15167;1.318;103.762;2023-05-24T01:44:39;31.20;1.00
27781;DHT22;15167;1.318;103.762;2023-05-24T01:49:56;31.10;1.00
27781;DHT22;15167;1.318;103.762;2023-05-24T01:52:26;31.10;1.00
27781;DHT22;15167;1.318;103.762;2023-05-24T01:54:54;31.20;1.00
27781;DHT22;15167;1.318;103.762;2023-05-24T01:57:21;31.20;1.00
27781;DHT22;15167;1.318;103.762;2023-05-24T01:59:48;31.30;1.00
27781;DHT22;15167;1.318;103.762;2023-05-24T02:02:14;31.40;99.90
27781;DHT22;15167;1.318;103.762;2023-05-24T02:04:41;31.60;99.90
27781;DHT22;15167;1.318;103.762;2023-05-24T02:07:07;31.70;99.90
27781;DHT22;15167;1.318;103.762;2023-05-24T02:09:33;31.90;99.90
27781;DHT22;15167;1.318;103.762;2023-05-24T02:11:59;32.00;99.90
27781;DHT22;15167;1.318;103.762;2023-05-24T02:14:25;32.10;99.90
27781;DHT22;15167;1.318;103.762;2023-05-24T02:16:51;32.20;99.90
27781;DHT22;15167;1.318;103.762;2023-05-24T02:19:23;32.30;99.90
27781;DHT22;15167;1.318;103.762;2023-05-24T02:21:49;32.40;99.90
27781;DHT22;15167;1.318;103.762;2023-05-24T02:24:16;32.30;99.90
27781;DHT22;15167;1.318;103.762;2023-05-24T02:26:43;32.40;68.10
27781;DHT22;15167;1.318;103.762;2023-05-24T02:29:09;32.40;89.70
27781;DHT22;15167;1.318;103.762;2023-05-24T02:31:35;32.50;12.30
27781;DHT22;15167;1.318;103.762;2023-05-24T02:34:01;32.60;16.50
27781;DHT22;15167;1.318;103.762;2023-05-24T02:36:27;32.60;22.30
27781;DHT22;15167;1.318;103.762;2023-05-24T02:38:53;32.60;16.30
27781;DHT22;15167;1.318;103.762;2023-05-24T02:41:21;32.50;1.00
27781;DHT22;15167;1.318;103.762;2023-05-24T02:43:47;32.40;25.30
27781;DHT22;15167;1.318;103.762;2023-05-24T02:46:13;32.20;17.60
27781;DHT22;15167;1.318;103.762;2023-05-24T02:48:39;32.10;39.10
27781;DHT22;15167;1.318;103.762;2023-05-24T02:51:06;32.20;40.10
27781;DHT22;15167;1.318;103.762;2023-05-24T02:53:32;32.40;85.40
27781;DHT22;15167;1.318;103.762;2023-05-24T02:55:58;32.40;93.40
27781;DHT22;15167;1.318;103.762;2023-05-24T02:58:24;32.40;92.50
27781;DHT22;15167;1.318;103.762;2023-05-24T03:00:53;32.30;99.90
27781;DHT22;15167;1.318;103.762;2023-05-24T03:03:20;32.30;99.90
27781;DHT22;15167;1.318;103.762;2023-05-24T03:05:46;32.30;99.90
27781;DHT22;15167;1.318;103.762;2023-05-24T03:08:12;32.20;99.90
27781;DHT22;15167;1.318;103.762;2023-05-24T03:10:38;32.30;74.50
27781;DHT22;15167;1.318;103.762;2023-05-24T03:13:04;32.20;96.50
27781;DHT22;15167;1.318;103.762;2023-05-24T03:15:30;32.20;77.70
27781;DHT22;15167;1.318;103.762;2023-05-24T03:17:56;32.20;21.80
27781;DHT22;15167;1.318;103.762;2023-05-24T03:20:23;32.20;3.60
27781;DHT22;15167;1.318;103.762;2023-05-24T03:22:49;32.30;31.20
27781;DHT22;15167;1.318;103.762;2023-05-24T03:25:15;32.40;46.30
27781;DHT22;15167;1.318;103.762;2023-05-24T03:27:41;32.60;1.00
27781;DHT22;15167;1.318;103.762;2023-05-24T03:30:07;32.70;1.00
27781;DHT22;15167;1.318;103.762;2023-05-24T03:32:34;32.80;99.90
27781;DHT22;15167;1.318;103.762;2023-05-24T03:35:00;33.00;99.90
27781;DHT22;15167;1.318;103.762;2023-05-24T03:37:26;33.30;99.90
27781;DHT22;15167;1.318;103.762;2023-05-24T03:39:52;33.60;1.00
27781;DHT22;15167;1.318;103.762;2023-05-24T03:42:19;33.90;99.90
27781;DHT22;15167;1.318;103.762;2023-05-24T03:44:45;34.10;59.80
27781;DHT22;15167;1.318;103.762;2023-05-24T03:47:12;34.30;6.00
27781;DHT22;15167;1.318;103.762;2023-05-24T03:49:38;34.30;51.30
27781;DHT22;15167;1.318;103.762;2023-05-24T03:52:04;34.50;1.00
27781;DHT22;15167;1.318;103.762;2023-05-24T03:54:30;34.60;99.90
27781;DHT22;15167;1.318;103.762;2023-05-24T03:56:56;34.80;3.80
27781;DHT22;15167;1.318;103.762;2023-05-24T03:59:22;34.90;1.00
27781;DHT22;15167;1.318;103.762;2023-05-24T04:01:51;35.00;99.90
27781;DHT22;15167;1.318;103.762;2023-05-24T04:04:17;35.00;56.00
27781;DHT22;15167;1.318;103.762;2023-05-24T04:06:43;35.10;99.90
27781;DHT22;15167;1.318;103.762;2023-05-24T04:09:09;35.20;99.90
27781;DHT22;15167;1.318;103.762;2023-05-24T04:11:36;35.30;99.90
27781;DHT22;15167;1.318;103.762;2023-05-24T04:14:02;35.40;99.90
27781;DHT22;15167;1.318;103.762;2023-05-24T04:16:28;35.60;99.90
27781;DHT22;15167;1.318;103.762;2023-05-24T04:18:58;35.70;99.90
27781;DHT22;15167;1.318;103.762;2023-05-24T04:21:26;35.70;57.40
27781;DHT22;15167;1.318;103.762;2023-05-24T04:23:52;35.80;30.40
27781;DHT22;15167;1.318;103.762;2023-05-24T04:26:18;36.00;1.00
27781;DHT22;15167;1.318;103.762;2023-05-24T04:28:45;36.10;1.00
27781;DHT22;15167;1.318;103.762;2023-05-24T04:31:12;36.20;99.90
27781;DHT22;15167;1.318;103.762;2023-05-24T04:33:40;36.40;99.90
27781;DHT22;15167;1.318;103.762;2023-05-24T04:36:07;36.40;99.90
27781;DHT22;15167;1.318;103.762;2023-05-24T04:38:36;36.20;99.90
27781;DHT22;15167;1.318;103.762;2023-05-24T04:41:03;36.30;99.90
27781;DHT22;15167;1.318;103.762;2023-05-24T04:43:32;36.40;99.90
27781;DHT22;15167;1.318;103.762;2023-05-24T04:46:01;36.50;99.90
27781;DHT22;15167;1.318;103.762;2023-05-24T04:48:28;36.50;99.90
27781;DHT22;15167;1.318;103.762;2023-05-24T04:50:54;36.50;99.90
27781;DHT22;15167;1.318;103.762;2023-05-24T04:53:21;36.40;99.90
27781;DHT22;15167;1.318;103.762;2023-05-24T04:55:48;36.70;99.90
27781;DHT22;15167;1.318;103.762;2023-05-24T04:58:14;37.30;7.40
27781;DHT22;15167;1.318;103.762;2023-05-24T05:00:41;37.80;1.00
27781;DHT22;15167;1.318;103.762;2023-05-24T05:03:07;39.40;1.00
27781;DHT22;15167;1.318;103.762;2023-05-24T05:05:33;41.00;99.90
27781;DHT22;15167;1.318;103.762;2023-05-24T05:08:00;42.50;99.90
27781;DHT22;15167;1.318;103.762;2023-05-24T05:10:26;43.60;99.90
27781;DHT22;15167;1.318;103.762;2023-05-24T05:12:52;44.00;99.90
27781;DHT22;15167;1.318;103.762;2023-05-24T05:15:20;44.50;99.90
27781;DHT22;15167;1.318;103.762;2023-05-24T05:17:47;45.10;99.90
27781;DHT22;15167;1.318;103.762;2023-05-24T05:20:13;45.20;99.90
27781;DHT22;15167;1.318;103.762;2023-05-24T05:22:44;45.00;99.90
27781;DHT22;15167;1.318;103.762;2023-05-24T05:25:10;45.10;99.90
27781;DHT22;15167;1.318;103.762;2023-05-24T05:27:36;45.50;99.90
27781;DHT22;15167;1.318;103.762;2023-05-24T05:30:03;45.70;99.90
27781;DHT22;15167;1.318;103.762;2023-05-24T05:32:29;45.90;99.90
27781;DHT22;15167;1.318;103.762;2023-05-24T05:34:55;45.10;99.90
27781;DHT22;15167;1.318;103.762;2023-05-24T05:37:21;45.10;99.90
27781;DHT22;15167;1.318;103.762;2023-05-24T05:39:47;45.10;99.90
27781;DHT22;15167;1.318;103.762;2023-05-24T05:42:13;45.20;99.90
27781;DHT22;15167;1.318;103.762;2023-05-24T05:44:39;45.80;99.90
27781;DHT22;15167;1.318;103.762;2023-05-24T05:47:05;45.90;99.90
27781;DHT22;15167;1.318;103.762;2023-05-24T05:49:33;46.30;99.90
27781;DHT22;15167;1.318;103.762;2023-05-24T05:52:05;46.50;99.90
27781;DHT22;15167;1.318;103.762;2023-05-24T05:54:31;46.40;99.90
27781;DHT22;15167;1.318;103.762;2023-05-24T05:56:58;46.80;99.90
27781;DHT22;15167;1.318;103.762;2023-05-24T05:59:24;46.80;99.90
27781;DHT22;15167;1.318;103.762;2023-05-24T06:01:50;47.00;99.90
27781;DHT22;15167;1.318;103.762;2023-05-24T06:04:17;47.00;99.90
27781;DHT22;15167;1.318;103.762;2023-05-24T06:06:43;47.20;99.90
27781;DHT22;15167;1.318;103.762;2023-05-24T06:09:18;47.00;99.90
27781;DHT22;15167;1.318;103.762;2023-05-24T06:11:44;46.90;99.90
27781;DHT22;15167;1.318;103.762;2023-05-24T06:14:11;47.10;99.90
27781;DHT22;15167;1.318;103.762;2023-05-24T06:16:37;47.00;99.90
27781;DHT22;15167;1.318;103.762;2023-05-24T06:19:07;46.90;99.90
27781;DHT22;15167;1.318;103.762;2023-05-24T06:21:34;46.90;99.90
27781;DHT22;15167;1.318;103.762;2023-05-24T06:24:02;46.70;99.90
27781;DHT22;15167;1.318;103.762;2023-05-24T06:26:28;46.70;99.90
27781;DHT22;15167;1.318;103.762;2023-05-24T06:28:54;47.00;99.90
27781;DHT22;15167;1.318;103.762;2023-05-24T06:31:21;47.00;99.90
27781;DHT22;15167;1.318;103.762;2023-05-24T06:33:47;47.10;99.90
27781;DHT22;15167;1.318;103.762;2023-05-24T06:36:13;47.30;99.90
27781;DHT22;15167;1.318;103.762;2023-05-24T06:38:39;47.50;99.90
27781;DHT22;15167;1.318;103.762;2023-05-24T06:41:05;47.60;99.90
27781;DHT22;15167;1.318;103.762;2023-05-24T06:43:33;47.30;99.90
27781;DHT22;15167;1.318;103.762;2023-05-24T06:45:59;47.20;99.90
27781;DHT22;15167;1.318;103.762;2023-05-24T06:48:25;47.00;99.90
27781;DHT22;15167;1.318;103.762;2023-05-24T06:50:51;47.10;99.90
27781;DHT22;15167;1.318;103.762;2023-05-24T06:53:17;47.20;99.90
27781;DHT22;15167;1.318;103.762;2023-05-24T06:55:44;47.50;99.90
27781;DHT22;15167;1.318;103.762;2023-05-24T06:58:10;47.60;99.90
27781;DHT22;15167;1.318;103.762;2023-05-24T07:00:39;47.90;99.90
27781;DHT22;15167;1.318;103.762;2023-05-24T07:03:07;48.10;99.90
27781;DHT22;15167;1.318;103.762;2023-05-24T07:05:33;48.20;99.90
27781;DHT22;15167;1.318;103.762;2023-05-24T07:08:00;48.00;99.90
27781;DHT22;15167;1.318;103.762;2023-05-24T07:10:26;48.20;99.90
27781;DHT22;15167;1.318;103.762;2023-05-24T07:12:52;48.40;99.90
27781;DHT22;15167;1.318;103.762;2023-05-24T07:15:19;48.30;99.90
27781;DHT22;15167;1.318;103.762;2023-05-24T07:17:45;48.40;99.90
27781;DHT22;15167;1.318;103.762;2023-05-24T07:20:12;48.50;99.90
27781;DHT22;15167;1.318;103.762;2023-05-24T07:22:41;48.40;99.90
27781;DHT22;15167;1.318;103.762;2023-05-24T07:25:08;48.40;99.90
27781;DHT22;15167;1.318;103.762;2023-05-24T07:27:34;47.60;99.90
27781;DHT22;15167;1.318;103.762;2023-05-24T07:30:01;46.90;99.90
27781;DHT22;15167;1.318;103.762;2023-05-24T07:32:29;47.40;99.90
27781;DHT22;15167;1.318;103.762;2023-05-24T07:34:57;47.90;99.90
27781;DHT22;15167;1.318;103.762;2023-05-24T07:37:23;48.20;99.90
27781;DHT22;15167;1.318;103.762;2023-05-24T07:39:49;47.70;99.90
27781;DHT22;15167;1.318;103.762;2023-05-24T07:42:16;47.50;99.90
27781;DHT22;15167;1.318;103.762;2023-05-24T07:44:42;47.20;99.90
27781;DHT22;15167;1.318;103.762;2023-05-24T07:47:08;47.30;99.90
27781;DHT22;15167;1.318;103.762;2023-05-24T07:49:35;46.20;99.90
27781;DHT22;15167;1.318;103.762;2023-05-24T07:52:01;44.90;99.90
27781;DHT22;15167;1.318;103.762;2023-05-24T07:54:28;44.30;99.90
27781;DHT22;15167;1.318;103.762;2023-05-24T07:56:55;44.00;99.90
27781;DHT22;15167;1.318;103.762;2023-05-24T07:59:22;43.30;99.90
27781;DHT22;15167;1.318;103.762;2023-05-24T08:01:48;42.70;99.90
27781;DHT22;15167;1.318;103.762;2023-05-24T08:04:15;42.20;99.90
27781;DHT22;15167;1.318;103.762;2023-05-24T08:06:41;41.70;99.90
27781;DHT22;15167;1.318;103.762;2023-05-24T08:09:07;41.30;99.90
27781;DHT22;15167;1.318;103.762;2023-05-24T08:11:33;40.90;99.90
27781;DHT22;15167;1.318;103.762;2023-05-24T08:13:59;40.70;99.90
27781;DHT22;15167;1.318;103.762;2023-05-24T08:16:26;40.40;99.90
27781;DHT22;15167;1.318;103.762;2023-05-24T08:18:52;40.20;99.90
27781;DHT22;15167;1.318;103.762;2023-05-24T08:21:18;40.20;99.90
27781;DHT22;15167;1.318;103.762;2023-05-24T08:23:45;40.10;99.90
27781;DHT22;15167;1.318;103.762;2023-05-24T08:26:11;39.90;99.90
27781;DHT22;15167;1.318;103.762;2023-05-24T08:28:37;39.80;99.90
27781;DHT22;15167;1.318;103.762;2023-05-24T08:31:03;39.80;99.90
27781;DHT22;15167;1.318;103.762;2023-05-24T08:33:30;39.40;99.90
27781;DHT22;15167;1.318;103.762;2023-05-24T08:35:57;39.10;99.90
27781;DHT22;15167;1.318;103.762;2023-05-24T08:38:23;38.80;99.90
27781;DHT22;15167;1.318;103.762;2023-05-24T08:40:49;38.90;99.90
27781;DHT22;15167;1.318;103.762;2023-05-24T08:43:15;38.90;99.90
27781;DHT22;15167;1.318;103.762;2023-05-24T08:45:41;38.90;99.90
27781;DHT22;15167;1.318;103.762;2023-05-24T08:48:08;38.90;99.90
27781;DHT22;15167;1.318;103.762;2023-05-24T08:50:34;38.80;99.90
27781;DHT22;15167;1.318;103.762;2023-05-24T08:53:00;38.70;99.90
27781;DHT22;15167;1.318;103.762;2023-05-24T08:55:32;38.70;99.90
27781;DHT22;15167;1.318;103.762;2023-05-24T08:57:59;38.70;99.90
27781;DHT22;15167;1.318;103.762;2023-05-24T09:00:25;38.50;99.90
27781;DHT22;15167;1.318;103.762;2023-05-24T09:02:52;38.40;99.90
27781;DHT22;15167;1.318;103.762;2023-05-24T09:05:18;38.20;99.90
27781;DHT22;15167;1.318;103.762;2023-05-24T09:07:47;38.20;99.90
27781;DHT22;15167;1.318;103.762;2023-05-24T09:10:13;38.20;99.90
27781;DHT22;15167;1.318;103.762;2023-05-24T09:12:43;38.30;99.90
27781;DHT22;15167;1.318;103.762;2023-05-24T09:15:10;38.40;99.90
27781;DHT22;15167;1.318;103.762;2023-05-24T09:17:37;38.70;99.90
27781;DHT22;15167;1.318;103.762;2023-05-24T09:20:05;38.90;99.90
27781;DHT22;15167;1.318;103.762;2023-05-24T09:22:35;39.40;99.90
27781;DHT22;15167;1.318;103.762;2023-05-24T09:25:02;40.30;99.90
27781;DHT22;15167;1.318;103.762;2023-05-24T09:27:30;41.10;99.90
27781;DHT22;15167;1.318;103.762;2023-05-24T09:29:56;41.70;99.90
27781;DHT22;15167;1.318;103.762;2023-05-24T09:32:22;41.90;99.90
27781;DHT22;15167;1.318;103.762;2023-05-24T09:34:52;42.10;99.90
27781;DHT22;15167;1.318;103.762;2023-05-24T09:37:19;42.10;99.90
27781;DHT22;15167;1.318;103.762;2023-05-24T09:39:47;41.90;99.90
27781;DHT22;15167;1.318;103.762;2023-05-24T09:42:16;41.70;99.90
27781;DHT22;15167;1.318;103.762;2023-05-24T09:44:43;41.30;99.90
27781;DHT22;15167;1.318;103.762;2023-05-24T09:47:09;41.00;99.90
27781;DHT22;15167;1.318;103.762;2023-05-24T09:49:37;41.00;99.90
27781;DHT22;15167;1.318;103.762;2023-05-24T09:52:03;40.80;99.90
27781;DHT22;15167;1.318;103.762;2023-05-24T09:54:32;40.10;99.90
27781;DHT22;15167;1.318;103.762;2023-05-24T09:56:59;39.40;99.90
27781;DHT22;15167;1.318;103.762;2023-05-24T09:59:26;39.50;99.90
27781;DHT22;15167;1.318;103.762;2023-05-24T10:02:01;39.50;99.90
27781;DHT22;15167;1.318;103.762;2023-05-24T10:04:32;39.70;99.90
27781;DHT22;15167;1.318;103.762;2023-05-24T10:06:58;39.50;99.90
27781;DHT22;15167;1.318;103.762;2023-05-24T10:09:25;39.50;99.90
27781;DHT22;15167;1.318;103.762;2023-05-24T10:12:01;39.60;99.90
27781;DHT22;15167;1.318;103.762;2023-05-24T10:14:33;39.70;99.90
27781;DHT22;15167;1.318;103.762;2023-05-24T10:17:03;39.90;99.90
27781;DHT22;15167;1.318;103.762;2023-05-24T10:19:33;39.80;99.90
27781;DHT22;15167;1.318;103.762;2023-05-24T10:21:59;39.50;99.90
27781;DHT22;15167;1.318;103.762;2023-05-24T10:24:28;39.50;99.90
27781;DHT22;15167;1.318;103.762;2023-05-24T10:26:57;39.20;99.90
27781;DHT22;15167;1.318;103.762;2023-05-24T10:32:10;38.70;99.90
27781;DHT22;15167;1.318;103.762;2023-05-24T10:34:38;38.40;99.90
27781;DHT22;15167;1.318;103.762;2023-05-24T10:37:04;38.00;99.90
27781;DHT22;15167;1.318;103.762;2023-05-24T10:39:32;37.50;99.90
27781;DHT22;15167;1.318;103.762;2023-05-24T10:42:02;37.00;99.90
27781;DHT22;15167;1.318;103.762;2023-05-24T10:44:28;36.60;99.90
27781;DHT22;15167;1.318;103.762;2023-05-24T10:47:15;36.30;99.90
27781;DHT22;15167;1.318;103.762;2023-05-24T10:49:48;35.90;99.90
27781;DHT22;15167;1.318;103.762;2023-05-24T10:52:16;35.60;99.90
27781;DHT22;15167;1.318;103.762;2023-05-24T10:55:17;35.40;1.00
27781;DHT22;15167;1.318;103.762;2023-05-24T10:57:35;35.10;1.00
27781;DHT22;15167;1.318;103.762;2023-05-24T11:02:48;34.70;1.00
27781;DHT22;15167;1.318;103.762;2023-05-24T11:05:14;34.50;1.00
27781;DHT22;15167;1.318;103.762;2023-05-24T11:07:41;34.50;1.00
27781;DHT22;15167;1.318;103.762;2023-05-24T11:10:14;34.30;33.30
27781;DHT22;15167;1.318;103.762;2023-05-24T11:12:41;34.20;99.90
27781;DHT22;15167;1.318;103.762;2023-05-24T11:15:09;34.20;99.90
27781;DHT22;15167;1.318;103.762;2023-05-24T11:18:20;34.10;99.90
27781;DHT22;15167;1.318;103.762;2023-05-24T11:20:25;34.00;99.90
27781;DHT22;15167;1.318;103.762;2023-05-24T11:22:51;33.90;99.90
27781;DHT22;15167;1.318;103.762;2023-05-24T11:25:19;33.80;99.90
27781;DHT22;15167;1.318;103.762;2023-05-24T11:27:46;33.80;99.90
27781;DHT22;15167;1.318;103.762;2023-05-24T11:30:12;33.70;99.90
27781;DHT22;15167;1.318;103.762;2023-05-24T11:32:40;33.60;13.00
27781;DHT22;15167;1.318;103.762;2023-05-24T11:35:07;33.60;99.90
27781;DHT22;15167;1.318;103.762;2023-05-24T11:37:36;33.50;99.90
27781;DHT22;15167;1.318;103.762;2023-05-24T11:40:03;33.40;1.00
27781;DHT22;15167;1.318;103.762;2023-05-24T11:42:34;33.30;99.90
27781;DHT22;15167;1.318;103.762;2023-05-24T11:45:04;33.30;99.90
27781;DHT22;15167;1.318;103.762;2023-05-24T11:47:34;33.20;1.00
27781;DHT22;15167;1.318;103.762;2023-05-24T11:50:01;33.20;10.40
27781;DHT22;15167;1.318;103.762;2023-05-24T11:52:27;33.20;75.60
27781;DHT22;15167;1.318;103.762;2023-05-24T11:54:54;33.10;99.90
27781;DHT22;15167;1.318;103.762;2023-05-24T11:57:22;33.10;99.90
27781;DHT22;15167;1.318;103.762;2023-05-24T11:59:51;33.10;99.90
27781;DHT22;15167;1.318;103.762;2023-05-24T12:02:17;33.00;99.90
27781;DHT22;15167;1.318;103.762;2023-05-24T12:04:44;33.00;1.00
27781;DHT22;15167;1.318;103.762;2023-05-24T12:07:11;33.00;43.10
27781;DHT22;15167;1.318;103.762;2023-05-24T12:09:37;33.00;99.90
27781;DHT22;15167;1.318;103.762;2023-05-24T12:12:04;32.80;20.00
27781;DHT22;15167;1.318;103.762;2023-05-24T12:14:32;32.80;99.90
27781;DHT22;15167;1.318;103.762;2023-05-24T12:16:58;32.80;99.90
27781;DHT22;15167;1.318;103.762;2023-05-24T12:19:28;32.70;1.00
27781;DHT22;15167;1.318;103.762;2023-05-24T12:21:57;32.60;30.40
27781;DHT22;15167;1.318;103.762;2023-05-24T12:24:24;32.60;23.20
27781;DHT22;15167;1.318;103.762;2023-05-24T12:26:50;32.40;1.00
27781;DHT22;15167;1.318;103.762;2023-05-24T12:29:18;32.40;1.00
27781;DHT22;15167;1.318;103.762;2023-05-24T12:31:46;32.40;17.30
27781;DHT22;15167;1.318;103.762;2023-05-24T12:34:13;32.20;99.90
27781;DHT22;15167;1.318;103.762;2023-05-24T12:36:41;32.20;99.90
27781;DHT22;15167;1.318;103.762;2023-05-24T12:39:17;32.10;99.90
27781;DHT22;15167;1.318;103.762;2023-05-24T12:41:43;32.10;99.90
27781;DHT22;15167;1.318;103.762;2023-05-24T12:44:10;32.10;1.00
27781;DHT22;15167;1.318;103.762;2023-05-24T12:46:37;32.10;1.00
27781;DHT22;15167;1.318;103.762;2023-05-24T12:49:03;32.10;9.20
27781;DHT22;15167;1.318;103.762;2023-05-24T12:51:29;32.10;15.70
27781;DHT22;15167;1.318;103.762;2023-05-24T12:53:55;32.00;37.90
27781;DHT22;15167;1.318;103.762;2023-05-24T12:56:22;32.10;75.30
27781;DHT22;15167;1.318;103.762;2023-05-24T12:58:51;32.10;82.20
27781;DHT22;15167;1.318;103.762;2023-05-24T13:01:19;32.00;99.90
27781;DHT22;15167;1.318;103.762;2023-05-24T13:03:45;31.90;99.90
27781;DHT22;15167;1.318;103.762;2023-05-24T13:06:11;31.90;99.90
27781;DHT22;15167;1.318;103.762;2023-05-24T13:08:37;31.90;99.90
27781;DHT22;15167;1.318;103.762;2023-05-24T13:11:04;31.80;99.90
27781;DHT22;15167;1.318;103.762;2023-05-24T13:13:30;31.90;99.90
27781;DHT22;15167;1.318;103.762;2023-05-24T13:15:57;31.80;99.90
27781;DHT22;15167;1.318;103.762;2023-05-24T13:18:24;31.80;99.90
27781;DHT22;15167;1.318;103.762;2023-05-24T13:20:51;31.80;99.90
27781;DHT22;15167;1.318;103.762;2023-05-24T13:23:17;31.70;99.90
27781;DHT22;15167;1.318;103.762;2023-05-24T13:25:43;31.70;99.90
27781;DHT22;15167;1.318;103.762;2023-05-24T13:28:09;31.70;99.90
27781;DHT22;15167;1.318;103.762;2023-05-24T13:30:35;31.70;99.90
27781;DHT22;15167;1.318;103.762;2023-05-24T13:33:01;31.60;99.90
27781;DHT22;15167;1.318;103.762;2023-05-24T13:35:28;31.50;1.00
27781;DHT22;15167;1.318;103.762;2023-05-24T13:37:55;31.50;1.00
27781;DHT22;15167;1.318;103.762;2023-05-24T13:40:22;31.50;1.00
27781;DHT22;15167;1.318;103.762;2023-05-24T13:42:50;31.40;1.00
27781;DHT22;15167;1.318;103.762;2023-05-24T13:45:16;31.50;1.00
27781;DHT22;15167;1.318;103.762;2023-05-24T13:47:42;31.50;1.00
27781;DHT22;15167;1.318;103.762;2023-05-24T13:50:08;31.50;1.00
27781;DHT22;15167;1.318;103.762;2023-05-24T13:52:35;31.50;1.00
27781;DHT22;15167;1.318;103.762;2023-05-24T13:55:02;31.50;1.00
27781;DHT22;15167;1.318;103.762;2023-05-24T13:57:29;31.40;1.00
27781;DHT22;15167;1.318;103.762;2023-05-24T13:59:55;31.40;3.50
27781;DHT22;15167;1.318;103.762;2023-05-24T14:02:21;31.50;7.00
27781;DHT22;15167;1.318;103.762;2023-05-24T14:04:48;31.40;30.00
27781;DHT22;15167;1.318;103.762;2023-05-24T14:07:14;31.40;33.50
27781;DHT22;15167;1.318;103.762;2023-05-24T14:09:40;31.40;44.40
27781;DHT22;15167;1.318;103.762;2023-05-24T14:12:07;31.30;51.60
27781;DHT22;15167;1.318;103.762;2023-05-24T14:14:33;31.30;84.00
27781;DHT22;15167;1.318;103.762;2023-05-24T14:16:59;31.30;94.90
27781;DHT22;15167;1.318;103.762;2023-05-24T14:19:25;31.30;98.50
27781;DHT22;15167;1.318;103.762;2023-05-24T14:21:52;31.30;99.90
27781;DHT22;15167;1.318;103.762;2023-05-24T14:24:18;31.30;98.00
27781;DHT22;15167;1.318;103.762;2023-05-24T14:26:45;31.20;99.90
27781;DHT22;15167;1.318;103.762;2023-05-24T14:29:12;31.20;99.90
27781;DHT22;15167;1.318;103.762;2023-05-24T14:31:38;31.10;67.60
27781;DHT22;15167;1.318;103.762;2023-05-24T14:34:08;31.10;58.20
27781;DHT22;15167;1.318;103.762;2023-05-24T14:36:35;31.20;57.60
27781;DHT22;15167;1.318;103.762;2023-05-24T14:39:03;31.20;53.80
27781;DHT22;15167;1.318;103.762;2023-05-24T14:41:31;31.20;46.50
27781;DHT22;15167;1.318;103.762;2023-05-24T14:43:57;31.10;66.80
27781;DHT22;15167;1.318;103.762;2023-05-24T14:46:23;31.10;97.00
27781;DHT22;15167;1.318;103.762;2023-05-24T14:48:49;31.10;99.90
27781;DHT22;15167;1.318;103.762;2023-05-24T14:51:16;31.10;98.20
27781;DHT22;15167;1.318;103.762;2023-05-24T14:53:42;31.10;99.90
27781;DHT22;15167;1.318;103.762;2023-05-24T14:56:10;31.00;99.90
27781;DHT22;15167;1.318;103.762;2023-05-24T14:58:38;31.00;99.90
27781;DHT22;15167;1.318;103.762;2023-05-24T15:01:05;31.00;99.90
27781;DHT22;15167;1.318;103.762;2023-05-24T15:03:34;31.00;99.90
27781;DHT22;15167;1.318;103.762;2023-05-24T15:06:00;30.90;99.90
27781;DHT22;15167;1.318;103.762;2023-05-24T15:08:30;30.90;99.90
27781;DHT22;15167;1.318;103.762;2023-05-24T15:10:56;30.80;99.90
27781;DHT22;15167;1.318;103.762;2023-05-24T15:13:22;30.80;99.90
27781;DHT22;15167;1.318;103.762;2023-05-24T15:15:50;30.80;99.90
27781;DHT22;15167;1.318;103.762;2023-05-24T15:18:18;30.80;99.90
27781;DHT22;15167;1.318;103.762;2023-05-24T15:20:44;30.80;99.90
27781;DHT22;15167;1.318;103.762;2023-05-24T15:23:10;30.80;99.90
27781;DHT22;15167;1.318;103.762;2023-05-24T15:25:37;30.80;99.90
27781;DHT22;15167;1.318;103.762;2023-05-24T15:28:03;30.70;99.90
27781;DHT22;15167;1.318;103.762;2023-05-24T15:30:29;30.70;99.90
27781;DHT22;15167;1.318;103.762;2023-05-24T15:32:56;30.70;99.90
27781;DHT22;15167;1.318;103.762;2023-05-24T15:35:22;30.80;99.90
27781;DHT22;15167;1.318;103.762;2023-05-24T15:37:48;30.70;99.90